sensor_id;sensor_type;location;lat;lon;timestamp;P1;durP1;ratioP1;P2;durP2;ratioP2
27796;SDS011;15177;50.844;4.412;2023-06-14T00:02:06;7.50;;;5.95;;
27796;SDS011;15177;50.844;4.412;2023-06-14T00:04:34;12.38;;;6.80;;
27796;SDS011;15177;50.844;4.412;2023-06-14T00:07:00;10.82;;;5.85;;
27796;SDS011;15177;50.844;4.412;2023-06-14T00:09:26;9.10;;;5.75;;
27796;SDS011;15177;50.844;4.412;2023-06-14T00:11:52;11.93;;;5.70;;
27796;SDS011;15177;50.844;4.412;2023-06-14T00:14:17;9.95;;;6.13;;
27796;SDS011;15177;50.844;4.412;2023-06-14T00:16:44;12.75;;;6.05;;
27796;SDS011;15177;50.844;4.412;2023-06-14T00:19:10;11.20;;;5.68;;
27796;SDS011;15177;50.844;4.412;2023-06-14T00:21:37;8.57;;;6.30;;
27796;SDS011;15177;50.844;4.412;2023-06-14T00:24:03;7.40;;;6.25;;
27796;SDS011;15177;50.844;4.412;2023-06-14T00:26:29;8.95;;;6.30;;
27796;SDS011;15177;50.844;4.412;2023-06-14T00:28:55;12.68;;;6.57;;
27796;SDS011;15177;50.844;4.412;2023-06-14T00:31:22;7.80;;;5.75;;
27796;SDS011;15177;50.844;4.412;2023-06-14T00:33:48;9.55;;;5.82;;
27796;SDS011;15177;50.844;4.412;2023-06-14T00:36:15;11.85;;;6.35;;
27796;SDS011;15177;50.844;4.412;2023-06-14T00:38:42;12.85;;;5.93;;
27796;SDS011;15177;50.844;4.412;2023-06-14T00:41:08;12.85;;;6.30;;
27796;SDS011;15177;50.844;4.412;2023-06-14T00:43:35;12.88;;;6.38;;
27796;SDS011;15177;50.844;4.412;2023-06-14T00:46:00;8.98;;;5.90;;
27796;SDS011;15177;50.844;4.412;2023-06-14T00:48:26;13.48;;;6.15;;
27796;SDS011;15177;50.844;4.412;2023-06-14T00:50:53;13.40;;;6.85;;
27796;SDS011;15177;50.844;4.412;2023-06-14T00:53:19;9.95;;;6.03;;
27796;SDS011;15177;50.844;4.412;2023-06-14T00:55:48;10.60;;;6.40;;
27796;SDS011;15177;50.844;4.412;2023-06-14T00:58:13;10.38;;;6.45;;
27796;SDS011;15177;50.844;4.412;2023-06-14T01:00:40;12.95;;;6.45;;
27796;SDS011;15177;50.844;4.412;2023-06-14T01:03:05;9.52;;;6.65;;
27796;SDS011;15177;50.844;4.412;2023-06-14T01:05:31;9.55;;;6.10;;
27796;SDS011;15177;50.844;4.412;2023-06-14T01:10:47;12.18;;;6.57;;
27796;SDS011;15177;50.844;4.412;2023-06-14T01:13:33;10.55;;;5.97;;
27796;SDS011;15177;50.844;4.412;2023-06-14T01:16:02;8.73;;;6.45;;
27796;SDS011;15177;50.844;4.412;2023-06-14T01:18:28;7.72;;;6.38;;
27796;SDS011;15177;50.844;4.412;2023-06-14T01:20:55;11.52;;;6.47;;
27796;SDS011;15177;50.844;4.412;2023-06-14T01:23:21;8.82;;;6.50;;
27796;SDS011;15177;50.844;4.412;2023-06-14T01:25:48;10.48;;;6.47;;
27796;SDS011;15177;50.844;4.412;2023-06-14T01:28:18;15.32;;;7.15;;
27796;SDS011;15177;50.844;4.412;2023-06-14T01:30:47;12.05;;;6.25;;
27796;SDS011;15177;50.844;4.412;2023-06-14T01:33:19;9.77;;;6.45;;
27796;SDS011;15177;50.844;4.412;2023-06-14T01:35:49;9.88;;;6.22;;
27796;SDS011;15177;50.844;4.412;2023-06-14T01:38:21;11.27;;;6.28;;
27796;SDS011;15177;50.844;4.412;2023-06-14T01:40:49;11.07;;;6.07;;
27796;SDS011;15177;50.844;4.412;2023-06-14T01:43:16;10.52;;;6.47;;
27796;SDS011;15177;50.844;4.412;2023-06-14T01:45:44;19.10;;;7.13;;
27796;SDS011;15177;50.844;4.412;2023-06-14T01:48:12;17.77;;;7.20;;
27796;SDS011;15177;50.844;4.412;2023-06-14T01:50:39;11.38;;;7.22;;
27796;SDS011;15177;50.844;4.412;2023-06-14T01:53:08;10.77;;;6.50;;
27796;SDS011;15177;50.844;4.412;2023-06-14T01:55:34;10.65;;;6.88;;
27796;SDS011;15177;50.844;4.412;2023-06-14T01:58:02;18.88;;;7.30;;
27796;SDS011;15177;50.844;4.412;2023-06-14T02:00:29;13.30;;;6.90;;
27796;SDS011;15177;50.844;4.412;2023-06-14T02:02:55;15.57;;;7.63;;
27796;SDS011;15177;50.844;4.412;2023-06-14T02:05:21;11.18;;;6.72;;
27796;SDS011;15177;50.844;4.412;2023-06-14T02:07:47;12.15;;;7.93;;
27796;SDS011;15177;50.844;4.412;2023-06-14T02:10:12;13.93;;;7.43;;
27796;SDS011;15177;50.844;4.412;2023-06-14T02:12:40;9.60;;;7.10;;
27796;SDS011;15177;50.844;4.412;2023-06-14T02:15:08;14.75;;;7.65;;
27796;SDS011;15177;50.844;4.412;2023-06-14T02:17:35;13.45;;;7.32;;
27796;SDS011;15177;50.844;4.412;2023-06-14T02:20:00;14.48;;;7.85;;
27796;SDS011;15177;50.844;4.412;2023-06-14T02:22:28;15.52;;;7.18;;
27796;SDS011;15177;50.844;4.412;2023-06-14T02:24:53;12.80;;;7.38;;
27796;SDS011;15177;50.844;4.412;2023-06-14T02:27:19;13.40;;;7.90;;
27796;SDS011;15177;50.844;4.412;2023-06-14T02:29:45;15.00;;;7.18;;
27796;SDS011;15177;50.844;4.412;2023-06-14T02:32:11;11.52;;;7.53;;
27796;SDS011;15177;50.844;4.412;2023-06-14T02:34:36;13.55;;;8.02;;
27796;SDS011;15177;50.844;4.412;2023-06-14T02:37:05;14.57;;;7.85;;
27796;SDS011;15177;50.844;4.412;2023-06-14T02:39:31;12.30;;;8.23;;
27796;SDS011;15177;50.844;4.412;2023-06-14T02:41:57;15.07;;;7.80;;
27796;SDS011;15177;50.844;4.412;2023-06-14T02:44:24;10.20;;;7.25;;
27796;SDS011;15177;50.844;4.412;2023-06-14T02:46:52;16.27;;;7.47;;
27796;SDS011;15177;50.844;4.412;2023-06-14T02:49:17;14.10;;;7.65;;
27796;SDS011;15177;50.844;4.412;2023-06-14T02:51:43;20.98;;;8.52;;
27796;SDS011;15177;50.844;4.412;2023-06-14T02:54:09;8.98;;;7.22;;
27796;SDS011;15177;50.844;4.412;2023-06-14T02:56:36;13.57;;;7.78;;
27796;SDS011;15177;50.844;4.412;2023-06-14T02:59:02;14.02;;;7.75;;
27796;SDS011;15177;50.844;4.412;2023-06-14T03:01:28;16.10;;;8.40;;
27796;SDS011;15177;50.844;4.412;2023-06-14T03:04:02;14.90;;;7.85;;
27796;SDS011;15177;50.844;4.412;2023-06-14T03:06:28;14.90;;;8.30;;
27796;SDS011;15177;50.844;4.412;2023-06-14T03:08:58;13.30;;;8.73;;
27796;SDS011;15177;50.844;4.412;2023-06-14T03:11:29;12.20;;;8.52;;
27796;SDS011;15177;50.844;4.412;2023-06-14T03:13:56;13.55;;;9.10;;
27796;SDS011;15177;50.844;4.412;2023-06-14T03:16:22;13.70;;;8.32;;
27796;SDS011;15177;50.844;4.412;2023-06-14T03:18:51;13.90;;;9.23;;
27796;SDS011;15177;50.844;4.412;2023-06-14T03:21:21;21.38;;;9.88;;
27796;SDS011;15177;50.844;4.412;2023-06-14T03:23:48;12.27;;;8.95;;
27796;SDS011;15177;50.844;4.412;2023-06-14T03:26:14;15.25;;;9.13;;
27796;SDS011;15177;50.844;4.412;2023-06-14T03:28:43;15.85;;;9.15;;
27796;SDS011;15177;50.844;4.412;2023-06-14T03:31:10;16.13;;;8.98;;
27796;SDS011;15177;50.844;4.412;2023-06-14T03:33:36;16.83;;;9.05;;
27796;SDS011;15177;50.844;4.412;2023-06-14T03:36:02;18.50;;;9.45;;
27796;SDS011;15177;50.844;4.412;2023-06-14T03:38:28;13.85;;;9.85;;
27796;SDS011;15177;50.844;4.412;2023-06-14T03:40:54;17.05;;;9.70;;
27796;SDS011;15177;50.844;4.412;2023-06-14T03:43:21;19.95;;;8.98;;
27796;SDS011;15177;50.844;4.412;2023-06-14T03:45:48;19.38;;;9.60;;
27796;SDS011;15177;50.844;4.412;2023-06-14T03:48:13;25.30;;;10.10;;
27796;SDS011;15177;50.844;4.412;2023-06-14T03:50:42;14.68;;;9.13;;
27796;SDS011;15177;50.844;4.412;2023-06-14T03:53:08;19.08;;;8.32;;
27796;SDS011;15177;50.844;4.412;2023-06-14T03:55:34;15.13;;;9.07;;
27796;SDS011;15177;50.844;4.412;2023-06-14T03:57:59;16.92;;;8.63;;
27796;SDS011;15177;50.844;4.412;2023-06-14T04:00:25;17.65;;;9.30;;
27796;SDS011;15177;50.844;4.412;2023-06-14T04:02:52;20.63;;;9.85;;
27796;SDS011;15177;50.844;4.412;2023-06-14T04:05:18;29.95;;;9.70;;
27796;SDS011;15177;50.844;4.412;2023-06-14T04:07:44;12.52;;;8.45;;
27796;SDS011;15177;50.844;4.412;2023-06-14T04:10:11;15.55;;;9.60;;
27796;SDS011;15177;50.844;4.412;2023-06-14T04:12:39;14.80;;;8.27;;
27796;SDS011;15177;50.844;4.412;2023-06-14T04:15:05;14.73;;;8.23;;
27796;SDS011;15177;50.844;4.412;2023-06-14T04:17:31;20.83;;;9.05;;
27796;SDS011;15177;50.844;4.412;2023-06-14T04:20:00;16.63;;;8.75;;
27796;SDS011;15177;50.844;4.412;2023-06-14T04:22:27;16.33;;;9.10;;
27796;SDS011;15177;50.844;4.412;2023-06-14T04:24:54;14.98;;;8.70;;
27796;SDS011;15177;50.844;4.412;2023-06-14T04:27:22;14.63;;;9.43;;
27796;SDS011;15177;50.844;4.412;2023-06-14T04:29:50;11.40;;;8.05;;
27796;SDS011;15177;50.844;4.412;2023-06-14T04:32:18;23.45;;;8.90;;
27796;SDS011;15177;50.844;4.412;2023-06-14T04:34:44;13.63;;;8.70;;
27796;SDS011;15177;50.844;4.412;2023-06-14T04:37:10;16.65;;;9.68;;
27796;SDS011;15177;50.844;4.412;2023-06-14T04:39:36;17.95;;;8.80;;
27796;SDS011;15177;50.844;4.412;2023-06-14T04:42:02;17.23;;;9.55;;
27796;SDS011;15177;50.844;4.412;2023-06-14T04:44:29;14.23;;;8.90;;
27796;SDS011;15177;50.844;4.412;2023-06-14T04:46:57;13.18;;;7.82;;
27796;SDS011;15177;50.844;4.412;2023-06-14T04:49:23;13.57;;;9.15;;
27796;SDS011;15177;50.844;4.412;2023-06-14T04:51:49;16.52;;;8.65;;
27796;SDS011;15177;50.844;4.412;2023-06-14T04:54:22;17.05;;;8.68;;
27796;SDS011;15177;50.844;4.412;2023-06-14T04:56:50;14.13;;;9.05;;
27796;SDS011;15177;50.844;4.412;2023-06-14T04:59:16;19.75;;;8.68;;
27796;SDS011;15177;50.844;4.412;2023-06-14T05:01:43;14.93;;;9.38;;
27796;SDS011;15177;50.844;4.412;2023-06-14T05:04:28;13.55;;;8.30;;
27796;SDS011;15177;50.844;4.412;2023-06-14T05:06:54;19.25;;;9.63;;
27796;SDS011;15177;50.844;4.412;2023-06-14T05:09:20;16.88;;;8.95;;
27796;SDS011;15177;50.844;4.412;2023-06-14T05:11:47;14.45;;;9.60;;
27796;SDS011;15177;50.844;4.412;2023-06-14T05:14:12;16.23;;;9.68;;
27796;SDS011;15177;50.844;4.412;2023-06-14T05:16:38;13.35;;;8.77;;
27796;SDS011;15177;50.844;4.412;2023-06-14T05:19:05;16.45;;;9.13;;
27796;SDS011;15177;50.844;4.412;2023-06-14T05:21:31;17.23;;;9.13;;
27796;SDS011;15177;50.844;4.412;2023-06-14T05:23:58;13.45;;;8.50;;
27796;SDS011;15177;50.844;4.412;2023-06-14T05:26:24;13.30;;;8.68;;
27796;SDS011;15177;50.844;4.412;2023-06-14T05:28:53;12.93;;;9.27;;
27796;SDS011;15177;50.844;4.412;2023-06-14T05:31:22;27.70;;;9.40;;
27796;SDS011;15177;50.844;4.412;2023-06-14T05:33:51;15.77;;;9.18;;
27796;SDS011;15177;50.844;4.412;2023-06-14T05:36:17;19.80;;;9.65;;
27796;SDS011;15177;50.844;4.412;2023-06-14T05:38:43;11.35;;;8.43;;
27796;SDS011;15177;50.844;4.412;2023-06-14T05:41:09;16.52;;;7.97;;
27796;SDS011;15177;50.844;4.412;2023-06-14T05:43:36;17.73;;;8.45;;
27796;SDS011;15177;50.844;4.412;2023-06-14T05:46:02;12.90;;;8.40;;
27796;SDS011;15177;50.844;4.412;2023-06-14T05:48:28;16.63;;;8.75;;
27796;SDS011;15177;50.844;4.412;2023-06-14T05:50:55;18.20;;;8.55;;
27796;SDS011;15177;50.844;4.412;2023-06-14T05:53:20;13.52;;;8.48;;
27796;SDS011;15177;50.844;4.412;2023-06-14T05:55:46;15.13;;;8.98;;
27796;SDS011;15177;50.844;4.412;2023-06-14T05:58:11;16.50;;;8.80;;
27796;SDS011;15177;50.844;4.412;2023-06-14T06:00:38;12.05;;;8.60;;
27796;SDS011;15177;50.844;4.412;2023-06-14T06:03:04;14.30;;;8.73;;
27796;SDS011;15177;50.844;4.412;2023-06-14T06:05:34;18.83;;;8.40;;
27796;SDS011;15177;50.844;4.412;2023-06-14T06:07:59;15.45;;;8.63;;
27796;SDS011;15177;50.844;4.412;2023-06-14T06:10:25;16.25;;;8.43;;
27796;SDS011;15177;50.844;4.412;2023-06-14T06:12:51;23.48;;;8.77;;
27796;SDS011;15177;50.844;4.412;2023-06-14T06:15:20;20.75;;;8.32;;
27796;SDS011;15177;50.844;4.412;2023-06-14T06:17:46;17.00;;;7.78;;
27796;SDS011;15177;50.844;4.412;2023-06-14T06:20:11;16.48;;;7.97;;
27796;SDS011;15177;50.844;4.412;2023-06-14T06:22:37;13.68;;;7.82;;
27796;SDS011;15177;50.844;4.412;2023-06-14T06:25:05;11.13;;;7.95;;
27796;SDS011;15177;50.844;4.412;2023-06-14T06:27:32;14.65;;;7.65;;
27796;SDS011;15177;50.844;4.412;2023-06-14T06:30:01;15.23;;;8.30;;
27796;SDS011;15177;50.844;4.412;2023-06-14T06:32:27;15.07;;;7.80;;
27796;SDS011;15177;50.844;4.412;2023-06-14T06:34:52;15.73;;;8.95;;
27796;SDS011;15177;50.844;4.412;2023-06-14T06:37:18;14.45;;;7.65;;
27796;SDS011;15177;50.844;4.412;2023-06-14T06:39:44;13.80;;;7.85;;
27796;SDS011;15177;50.844;4.412;2023-06-14T06:42:11;14.98;;;8.43;;
27796;SDS011;15177;50.844;4.412;2023-06-14T06:44:37;14.63;;;7.53;;
27796;SDS011;15177;50.844;4.412;2023-06-14T06:47:03;21.27;;;8.57;;
27796;SDS011;15177;50.844;4.412;2023-06-14T06:49:30;12.32;;;7.72;;
27796;SDS011;15177;50.844;4.412;2023-06-14T06:52:02;17.15;;;7.65;;
27796;SDS011;15177;50.844;4.412;2023-06-14T06:54:36;12.55;;;6.88;;
27796;SDS011;15177;50.844;4.412;2023-06-14T06:57:01;8.63;;;6.57;;
27796;SDS011;15177;50.844;4.412;2023-06-14T06:59:27;19.13;;;7.63;;
27796;SDS011;15177;50.844;4.412;2023-06-14T07:01:54;21.88;;;7.82;;
27796;SDS011;15177;50.844;4.412;2023-06-14T07:04:21;15.50;;;7.32;;
27796;SDS011;15177;50.844;4.412;2023-06-14T07:06:47;12.40;;;7.00;;
27796;SDS011;15177;50.844;4.412;2023-06-14T07:09:13;11.88;;;6.90;;
27796;SDS011;15177;50.844;4.412;2023-06-14T07:11:42;14.85;;;6.65;;
27796;SDS011;15177;50.844;4.412;2023-06-14T07:14:13;14.68;;;6.93;;
27796;SDS011;15177;50.844;4.412;2023-06-14T07:16:44;15.77;;;7.10;;
27796;SDS011;15177;50.844;4.412;2023-06-14T07:19:11;11.35;;;6.43;;
27796;SDS011;15177;50.844;4.412;2023-06-14T07:21:43;8.70;;;6.72;;
27796;SDS011;15177;50.844;4.412;2023-06-14T07:24:09;10.05;;;7.22;;
27796;SDS011;15177;50.844;4.412;2023-06-14T07:26:35;10.32;;;6.70;;
27796;SDS011;15177;50.844;4.412;2023-06-14T07:29:01;9.02;;;6.72;;
27796;SDS011;15177;50.844;4.412;2023-06-14T07:31:27;7.90;;;6.30;;
27796;SDS011;15177;50.844;4.412;2023-06-14T07:33:53;12.07;;;6.70;;
27796;SDS011;15177;50.844;4.412;2023-06-14T07:36:18;11.13;;;6.20;;
27796;SDS011;15177;50.844;4.412;2023-06-14T07:38:45;9.63;;;6.38;;
27796;SDS011;15177;50.844;4.412;2023-06-14T07:41:11;13.07;;;6.28;;
27796;SDS011;15177;50.844;4.412;2023-06-14T07:43:42;11.23;;;6.32;;
27796;SDS011;15177;50.844;4.412;2023-06-14T07:46:07;7.70;;;5.72;;
27796;SDS011;15177;50.844;4.412;2023-06-14T07:48:34;9.48;;;6.13;;
27796;SDS011;15177;50.844;4.412;2023-06-14T07:50:59;12.32;;;6.57;;
27796;SDS011;15177;50.844;4.412;2023-06-14T07:53:28;12.40;;;6.70;;
27796;SDS011;15177;50.844;4.412;2023-06-14T07:55:57;15.07;;;6.47;;
27796;SDS011;15177;50.844;4.412;2023-06-14T07:58:22;14.65;;;5.93;;
27796;SDS011;15177;50.844;4.412;2023-06-14T08:00:48;17.75;;;6.15;;
27796;SDS011;15177;50.844;4.412;2023-06-14T08:03:14;10.25;;;6.63;;
27796;SDS011;15177;50.844;4.412;2023-06-14T08:05:40;11.52;;;6.32;;
27796;SDS011;15177;50.844;4.412;2023-06-14T08:08:06;10.63;;;6.05;;
27796;SDS011;15177;50.844;4.412;2023-06-14T08:10:33;9.50;;;6.15;;
27796;SDS011;15177;50.844;4.412;2023-06-14T08:12:59;10.90;;;6.30;;
27796;SDS011;15177;50.844;4.412;2023-06-14T08:15:25;14.88;;;6.75;;
27796;SDS011;15177;50.844;4.412;2023-06-14T08:17:51;12.63;;;5.68;;
27796;SDS011;15177;50.844;4.412;2023-06-14T08:20:17;10.73;;;6.03;;
27796;SDS011;15177;50.844;4.412;2023-06-14T08:22:43;16.17;;;7.00;;
27796;SDS011;15177;50.844;4.412;2023-06-14T08:25:11;8.93;;;6.88;;
27796;SDS011;15177;50.844;4.412;2023-06-14T08:27:37;10.48;;;5.70;;
27796;SDS011;15177;50.844;4.412;2023-06-14T08:30:08;14.00;;;7.18;;
27796;SDS011;15177;50.844;4.412;2023-06-14T08:32:38;10.85;;;5.90;;
27796;SDS011;15177;50.844;4.412;2023-06-14T08:35:04;11.10;;;6.18;;
27796;SDS011;15177;50.844;4.412;2023-06-14T08:37:35;15.05;;;5.97;;
27796;SDS011;15177;50.844;4.412;2023-06-14T08:40:06;13.68;;;6.43;;
27796;SDS011;15177;50.844;4.412;2023-06-14T08:42:53;8.60;;;6.25;;
27796;SDS011;15177;50.844;4.412;2023-06-14T08:45:22;11.15;;;6.15;;
27796;SDS011;15177;50.844;4.412;2023-06-14T08:47:49;11.23;;;6.32;;
27796;SDS011;15177;50.844;4.412;2023-06-14T08:50:23;15.70;;;6.13;;
27796;SDS011;15177;50.844;4.412;2023-06-14T08:52:55;12.65;;;5.88;;
27796;SDS011;15177;50.844;4.412;2023-06-14T08:55:25;12.57;;;6.68;;
27796;SDS011;15177;50.844;4.412;2023-06-14T08:57:56;9.05;;;6.55;;
27796;SDS011;15177;50.844;4.412;2023-06-14T09:00:27;15.55;;;6.10;;
27796;SDS011;15177;50.844;4.412;2023-06-14T09:02:53;12.07;;;6.15;;
27796;SDS011;15177;50.844;4.412;2023-06-14T09:05:23;10.70;;;7.07;;
27796;SDS011;15177;50.844;4.412;2023-06-14T09:07:51;10.93;;;6.82;;
27796;SDS011;15177;50.844;4.412;2023-06-14T09:10:17;9.80;;;6.80;;
27796;SDS011;15177;50.844;4.412;2023-06-14T09:12:43;13.25;;;5.75;;
27796;SDS011;15177;50.844;4.412;2023-06-14T09:15:09;11.05;;;6.70;;
27796;SDS011;15177;50.844;4.412;2023-06-14T09:17:35;12.52;;;6.93;;
27796;SDS011;15177;50.844;4.412;2023-06-14T09:20:03;19.73;;;7.18;;
27796;SDS011;15177;50.844;4.412;2023-06-14T09:22:36;13.35;;;6.18;;
27796;SDS011;15177;50.844;4.412;2023-06-14T09:25:04;15.15;;;6.05;;
27796;SDS011;15177;50.844;4.412;2023-06-14T09:27:33;7.32;;;5.78;;
27796;SDS011;15177;50.844;4.412;2023-06-14T09:30:00;14.65;;;6.15;;
27796;SDS011;15177;50.844;4.412;2023-06-14T09:32:28;6.70;;;5.63;;
27796;SDS011;15177;50.844;4.412;2023-06-14T09:34:54;9.68;;;6.22;;
27796;SDS011;15177;50.844;4.412;2023-06-14T09:37:27;13.63;;;5.95;;
27796;SDS011;15177;50.844;4.412;2023-06-14T09:39:54;11.13;;;6.40;;
27796;SDS011;15177;50.844;4.412;2023-06-14T09:42:20;11.43;;;6.18;;
27796;SDS011;15177;50.844;4.412;2023-06-14T09:44:49;15.40;;;6.88;;
27796;SDS011;15177;50.844;4.412;2023-06-14T09:47:15;8.23;;;5.95;;
27796;SDS011;15177;50.844;4.412;2023-06-14T09:49:41;11.20;;;5.60;;
27796;SDS011;15177;50.844;4.412;2023-06-14T09:52:10;12.02;;;6.35;;
27796;SDS011;15177;50.844;4.412;2023-06-14T09:54:41;17.33;;;6.72;;
27796;SDS011;15177;50.844;4.412;2023-06-14T09:57:08;10.02;;;5.80;;
27796;SDS011;15177;50.844;4.412;2023-06-14T09:59:43;6.18;;;5.40;;
27796;SDS011;15177;50.844;4.412;2023-06-14T10:02:11;15.95;;;6.18;;
27796;SDS011;15177;50.844;4.412;2023-06-14T10:04:46;10.02;;;5.50;;
27796;SDS011;15177;50.844;4.412;2023-06-14T10:07:19;10.60;;;5.65;;
27796;SDS011;15177;50.844;4.412;2023-06-14T10:09:47;7.50;;;5.25;;
27796;SDS011;15177;50.844;4.412;2023-06-14T10:12:17;11.00;;;5.85;;
27796;SDS011;15177;50.844;4.412;2023-06-14T10:14:50;7.05;;;5.18;;
27796;SDS011;15177;50.844;4.412;2023-06-14T10:17:22;10.77;;;6.05;;
27796;SDS011;15177;50.844;4.412;2023-06-14T10:22:56;12.88;;;6.25;;
27796;SDS011;15177;50.844;4.412;2023-06-14T10:25:27;7.90;;;5.72;;
27796;SDS011;15177;50.844;4.412;2023-06-14T10:28:37;16.65;;;6.63;;
27796;SDS011;15177;50.844;4.412;2023-06-14T10:31:03;15.00;;;6.43;;
27796;SDS011;15177;50.844;4.412;2023-06-14T10:33:34;10.07;;;5.65;;
27796;SDS011;15177;50.844;4.412;2023-06-14T10:36:11;8.38;;;5.13;;
27796;SDS011;15177;50.844;4.412;2023-06-14T10:41:42;7.05;;;5.40;;
27796;SDS011;15177;50.844;4.412;2023-06-14T10:49:16;11.68;;;5.40;;
27796;SDS011;15177;50.844;4.412;2023-06-14T10:51:49;13.25;;;5.57;;
27796;SDS011;15177;50.844;4.412;2023-06-14T10:54:17;10.30;;;5.18;;
27796;SDS011;15177;50.844;4.412;2023-06-14T10:56:46;9.18;;;5.10;;
27796;SDS011;15177;50.844;4.412;2023-06-14T10:59:13;9.38;;;5.90;;
27796;SDS011;15177;50.844;4.412;2023-06-14T11:04:22;13.07;;;5.05;;
27796;SDS011;15177;50.844;4.412;2023-06-14T11:06:54;6.68;;;5.13;;
27796;SDS011;15177;50.844;4.412;2023-06-14T11:12:31;11.90;;;5.35;;
27796;SDS011;15177;50.844;4.412;2023-06-14T11:14:58;12.68;;;5.03;;
27796;SDS011;15177;50.844;4.412;2023-06-14T11:17:24;13.45;;;5.30;;
27796;SDS011;15177;50.844;4.412;2023-06-14T11:19:51;10.30;;;4.70;;
27796;SDS011;15177;50.844;4.412;2023-06-14T11:22:39;16.00;;;4.80;;
27796;SDS011;15177;50.844;4.412;2023-06-14T11:25:08;8.27;;;5.18;;
27796;SDS011;15177;50.844;4.412;2023-06-14T11:27:35;10.88;;;4.90;;
27796;SDS011;15177;50.844;4.412;2023-06-14T11:30:00;8.60;;;4.40;;
27796;SDS011;15177;50.844;4.412;2023-06-14T11:32:26;10.63;;;4.88;;
27796;SDS011;15177;50.844;4.412;2023-06-14T11:34:52;11.77;;;5.15;;
27796;SDS011;15177;50.844;4.412;2023-06-14T11:37:18;10.02;;;4.75;;
27796;SDS011;15177;50.844;4.412;2023-06-14T11:39:44;9.02;;;5.47;;
27796;SDS011;15177;50.844;4.412;2023-06-14T11:42:17;6.78;;;5.20;;
27796;SDS011;15177;50.844;4.412;2023-06-14T11:44:46;10.90;;;5.47;;
27796;SDS011;15177;50.844;4.412;2023-06-14T11:47:12;15.25;;;5.30;;
27796;SDS011;15177;50.844;4.412;2023-06-14T11:49:42;10.48;;;5.35;;
27796;SDS011;15177;50.844;4.412;2023-06-14T11:52:08;10.52;;;5.38;;
27796;SDS011;15177;50.844;4.412;2023-06-14T11:54:36;11.88;;;5.15;;
27796;SDS011;15177;50.844;4.412;2023-06-14T11:57:02;10.95;;;5.88;;
27796;SDS011;15177;50.844;4.412;2023-06-14T11:59:29;11.85;;;5.18;;
27796;SDS011;15177;50.844;4.412;2023-06-14T12:01:56;14.40;;;5.85;;
27796;SDS011;15177;50.844;4.412;2023-06-14T12:04:26;9.38;;;4.75;;
27796;SDS011;15177;50.844;4.412;2023-06-14T12:06:52;8.55;;;4.70;;
27796;SDS011;15177;50.844;4.412;2023-06-14T12:09:20;12.32;;;4.82;;
27796;SDS011;15177;50.844;4.412;2023-06-14T12:11:50;7.43;;;4.38;;
27796;SDS011;15177;50.844;4.412;2023-06-14T12:14:29;9.75;;;4.78;;
27796;SDS011;15177;50.844;4.412;2023-06-14T12:17:03;13.48;;;4.70;;
27796;SDS011;15177;50.844;4.412;2023-06-14T12:19:31;9.10;;;4.93;;
27796;SDS011;15177;50.844;4.412;2023-06-14T12:22:06;9.35;;;4.72;;
27796;SDS011;15177;50.844;4.412;2023-06-14T12:24:34;11.57;;;5.03;;
27796;SDS011;15177;50.844;4.412;2023-06-14T12:26:59;7.30;;;4.28;;
27796;SDS011;15177;50.844;4.412;2023-06-14T12:29:28;10.45;;;4.97;;
27796;SDS011;15177;50.844;4.412;2023-06-14T12:31:54;11.77;;;4.93;;
27796;SDS011;15177;50.844;4.412;2023-06-14T12:34:22;15.93;;;5.07;;
27796;SDS011;15177;50.844;4.412;2023-06-14T12:36:49;19.73;;;5.35;;
27796;SDS011;15177;50.844;4.412;2023-06-14T12:39:16;9.82;;;4.72;;
27796;SDS011;15177;50.844;4.412;2023-06-14T12:41:41;5.63;;;4.10;;
27796;SDS011;15177;50.844;4.412;2023-06-14T12:44:07;12.88;;;5.10;;
27796;SDS011;15177;50.844;4.412;2023-06-14T12:46:33;6.07;;;4.05;;
27796;SDS011;15177;50.844;4.412;2023-06-14T12:49:04;7.28;;;4.35;;
27796;SDS011;15177;50.844;4.412;2023-06-14T12:51:31;11.43;;;3.90;;
27796;SDS011;15177;50.844;4.412;2023-06-14T12:53:57;7.35;;;4.22;;
27796;SDS011;15177;50.844;4.412;2023-06-14T12:56:23;7.53;;;4.38;;
27796;SDS011;15177;50.844;4.412;2023-06-14T12:58:49;8.73;;;4.18;;
27796;SDS011;15177;50.844;4.412;2023-06-14T13:01:14;7.60;;;4.32;;
27796;SDS011;15177;50.844;4.412;2023-06-14T13:03:40;8.48;;;4.18;;
27796;SDS011;15177;50.844;4.412;2023-06-14T13:06:06;9.20;;;3.97;;
27796;SDS011;15177;50.844;4.412;2023-06-14T13:08:31;9.52;;;4.43;;
27796;SDS011;15177;50.844;4.412;2023-06-14T13:10:57;6.65;;;3.90;;
27796;SDS011;15177;50.844;4.412;2023-06-14T13:13:23;6.40;;;3.58;;
27796;SDS011;15177;50.844;4.412;2023-06-14T13:15:48;5.97;;;3.70;;
27796;SDS011;15177;50.844;4.412;2023-06-14T13:18:15;7.35;;;3.47;;
27796;SDS011;15177;50.844;4.412;2023-06-14T13:20:41;8.70;;;4.00;;
27796;SDS011;15177;50.844;4.412;2023-06-14T13:23:07;13.85;;;3.72;;
27796;SDS011;15177;50.844;4.412;2023-06-14T13:25:34;5.47;;;3.38;;
27796;SDS011;15177;50.844;4.412;2023-06-14T13:28:00;8.07;;;3.92;;
27796;SDS011;15177;50.844;4.412;2023-06-14T13:30:26;8.60;;;3.95;;
27796;SDS011;15177;50.844;4.412;2023-06-14T13:32:52;8.35;;;3.72;;
27796;SDS011;15177;50.844;4.412;2023-06-14T13:35:18;10.00;;;3.35;;
27796;SDS011;15177;50.844;4.412;2023-06-14T13:37:44;5.75;;;3.50;;
27796;SDS011;15177;50.844;4.412;2023-06-14T13:40:10;12.70;;;3.67;;
27796;SDS011;15177;50.844;4.412;2023-06-14T13:42:36;4.40;;;3.47;;
27796;SDS011;15177;50.844;4.412;2023-06-14T13:45:02;4.78;;;3.53;;
27796;SDS011;15177;50.844;4.412;2023-06-14T13:47:29;6.28;;;3.33;;
27796;SDS011;15177;50.844;4.412;2023-06-14T13:49:55;8.38;;;3.53;;
27796;SDS011;15177;50.844;4.412;2023-06-14T13:52:21;10.32;;;3.53;;
27796;SDS011;15177;50.844;4.412;2023-06-14T13:54:47;5.72;;;3.03;;
27796;SDS011;15177;50.844;4.412;2023-06-14T13:57:13;7.40;;;3.50;;
27796;SDS011;15177;50.844;4.412;2023-06-14T13:59:39;8.10;;;3.88;;
27796;SDS011;15177;50.844;4.412;2023-06-14T14:02:06;3.72;;;2.60;;
27796;SDS011;15177;50.844;4.412;2023-06-14T14:04:32;3.83;;;2.33;;
27796;SDS011;15177;50.844;4.412;2023-06-14T14:07:00;7.72;;;2.97;;
27796;SDS011;15177;50.844;4.412;2023-06-14T14:09:26;6.75;;;2.85;;
27796;SDS011;15177;50.844;4.412;2023-06-14T14:11:52;6.45;;;2.70;;
27796;SDS011;15177;50.844;4.412;2023-06-14T14:14:18;5.85;;;2.90;;
27796;SDS011;15177;50.844;4.412;2023-06-14T14:16:43;7.88;;;2.67;;
27796;SDS011;15177;50.844;4.412;2023-06-14T14:19:09;4.45;;;2.72;;
27796;SDS011;15177;50.844;4.412;2023-06-14T14:21:35;4.50;;;2.50;;
27796;SDS011;15177;50.844;4.412;2023-06-14T14:24:01;4.38;;;2.40;;
27796;SDS011;15177;50.844;4.412;2023-06-14T14:26:26;4.18;;;2.10;;
27796;SDS011;15177;50.844;4.412;2023-06-14T14:28:52;4.70;;;2.30;;
27796;SDS011;15177;50.844;4.412;2023-06-14T14:31:18;4.65;;;2.28;;
27796;SDS011;15177;50.844;4.412;2023-06-14T14:33:44;9.27;;;2.47;;
27796;SDS011;15177;50.844;4.412;2023-06-14T14:36:09;6.00;;;2.17;;
27796;SDS011;15177;50.844;4.412;2023-06-14T14:38:35;5.25;;;2.10;;
27796;SDS011;15177;50.844;4.412;2023-06-14T14:41:01;5.78;;;2.58;;
27796;SDS011;15177;50.844;4.412;2023-06-14T14:43:26;6.40;;;2.35;;
27796;SDS011;15177;50.844;4.412;2023-06-14T14:45:55;6.68;;;2.60;;
27796;SDS011;15177;50.844;4.412;2023-06-14T14:48:20;2.72;;;1.98;;
27796;SDS011;15177;50.844;4.412;2023-06-14T14:50:46;7.57;;;2.53;;
27796;SDS011;15177;50.844;4.412;2023-06-14T14:53:12;5.55;;;2.30;;
27796;SDS011;15177;50.844;4.412;2023-06-14T14:55:38;3.53;;;1.95;;
27796;SDS011;15177;50.844;4.412;2023-06-14T14:58:06;4.53;;;2.25;;
27796;SDS011;15177;50.844;4.412;2023-06-14T15:00:33;15.70;;;3.38;;